sensor_id;sensor_type;location;lat;lon;timestamp;pressure;altitude;pressure_sealevel;temperature;humidity
49178;BME280;35016;55.674;37.468;2023-02-19T00:02:11;97433.47;;;-5.16;69.73
49178;BME280;35016;55.674;37.468;2023-02-19T00:04:38;97424.94;;;-5.18;69.34
49178;BME280;35016;55.674;37.468;2023-02-19T00:07:05;97433.47;;;-5.16;69.42
49178;BME280;35016;55.674;37.468;2023-02-19T00:09:32;97420.03;;;-5.15;69.87
49178;BME280;35016;55.674;37.468;2023-02-19T00:11:59;97421.06;;;-5.16;69.72
49178;BME280;35016;55.674;37.468;2023-02-19T00:14:26;97418.84;;;-5.19;69.25
49178;BME280;35016;55.674;37.468;2023-02-19T00:16:58;97418.22;;;-5.21;69.53
49178;BME280;35016;55.674;37.468;2023-02-19T00:19:26;97413.97;;;-5.22;69.38
49178;BME280;35016;55.674;37.468;2023-02-19T00:21:56;97403.38;;;-5.22;69.93
49178;BME280;35016;55.674;37.468;2023-02-19T00:24:23;97407.06;;;-5.23;69.53
49178;BME280;35016;55.674;37.468;2023-02-19T00:26:50;97403.00;;;-5.25;69.64
49178;BME280;35016;55.674;37.468;2023-02-19T00:29:19;97401.22;;;-5.32;69.21
49178;BME280;35016;55.674;37.468;2023-02-19T00:31:46;97398.41;;;-5.37;69.72
49178;BME280;35016;55.674;37.468;2023-02-19T00:34:13;97403.09;;;-5.39;69.50
49178;BME280;35016;55.674;37.468;2023-02-19T00:36:41;97401.25;;;-5.38;69.32
49178;BME280;35016;55.674;37.468;2023-02-19T00:39:10;97397.78;;;-5.39;69.59
49178;BME280;35016;55.674;37.468;2023-02-19T00:41:37;97399.22;;;-5.36;69.71
49178;BME280;35016;55.674;37.468;2023-02-19T00:44:06;97390.06;;;-5.34;69.52
49178;BME280;35016;55.674;37.468;2023-02-19T00:49:02;97386.19;;;-5.31;69.77
49178;BME280;35016;55.674;37.468;2023-02-19T00:51:30;97381.91;;;-5.32;69.42
49178;BME280;35016;55.674;37.468;2023-02-19T00:53:58;97378.84;;;-5.29;69.81
49178;BME280;35016;55.674;37.468;2023-02-19T00:56:25;97375.41;;;-5.30;69.44
49178;BME280;35016;55.674;37.468;2023-02-19T00:58:52;97374.38;;;-5.28;69.52
49178;BME280;35016;55.674;37.468;2023-02-19T01:01:19;97364.03;;;-5.30;69.72
49178;BME280;35016;55.674;37.468;2023-02-19T01:03:47;97365.84;;;-5.31;69.90
49178;BME280;35016;55.674;37.468;2023-02-19T01:06:15;97360.56;;;-5.31;69.41
49178;BME280;35016;55.674;37.468;2023-02-19T01:08:43;97351.63;;;-5.30;69.57
49178;BME280;35016;55.674;37.468;2023-02-19T01:11:10;97352.44;;;-5.29;69.55
49178;BME280;35016;55.674;37.468;2023-02-19T01:13:38;97360.34;;;-5.29;69.63
49178;BME280;35016;55.674;37.468;2023-02-19T01:16:07;97350.59;;;-5.28;69.98
49178;BME280;35016;55.674;37.468;2023-02-19T01:18:35;97343.88;;;-5.24;69.80
49178;BME280;35016;55.674;37.468;2023-02-19T01:21:05;97346.09;;;-5.21;70.01
49178;BME280;35016;55.674;37.468;2023-02-19T01:23:34;97340.81;;;-5.21;69.62
49178;BME280;35016;55.674;37.468;2023-02-19T01:26:05;97328.63;;;-5.22;69.38
49178;BME280;35016;55.674;37.468;2023-02-19T01:28:32;97337.19;;;-5.27;69.70
49178;BME280;35016;55.674;37.468;2023-02-19T01:31:03;97328.66;;;-5.29;69.53
49178;BME280;35016;55.674;37.468;2023-02-19T01:33:31;97329.31;;;-5.34;69.69
49178;BME280;35016;55.674;37.468;2023-02-19T01:36:04;97330.31;;;-5.35;70.27
49178;BME280;35016;55.674;37.468;2023-02-19T01:38:32;97339.28;;;-5.36;69.63
49178;BME280;35016;55.674;37.468;2023-02-19T01:41:03;97323.03;;;-5.39;69.66
49178;BME280;35016;55.674;37.468;2023-02-19T01:43:31;97341.97;;;-5.42;69.88
49178;BME280;35016;55.674;37.468;2023-02-19T01:45:58;97331.19;;;-5.41;69.92
49178;BME280;35016;55.674;37.468;2023-02-19T01:48:26;97326.91;;;-5.42;69.78
49178;BME280;35016;55.674;37.468;2023-02-19T01:50:56;97323.47;;;-5.42;70.14
49178;BME280;35016;55.674;37.468;2023-02-19T01:53:25;97335.06;;;-5.43;69.56
49178;BME280;35016;55.674;37.468;2023-02-19T01:55:55;97333.44;;;-5.44;69.84
49178;BME280;35016;55.674;37.468;2023-02-19T01:58:24;97322.66;;;-5.43;70.05
49178;BME280;35016;55.674;37.468;2023-02-19T02:00:56;97335.06;;;-5.43;69.65
49178;BME280;35016;55.674;37.468;2023-02-19T02:03:24;97333.88;;;-5.47;69.55
49178;BME280;35016;55.674;37.468;2023-02-19T02:05:55;97320.03;;;-5.49;69.52
49178;BME280;35016;55.674;37.468;2023-02-19T02:08:23;97327.34;;;-5.51;70.24
49178;BME280;35016;55.674;37.468;2023-02-19T02:11:09;97330.63;;;-5.56;69.65
49178;BME280;35016;55.674;37.468;2023-02-19T02:13:37;97334.09;;;-5.55;70.05
49178;BME280;35016;55.674;37.468;2023-02-19T02:18:59;97327.94;;;-5.49;70.32
49178;BME280;35016;55.674;37.468;2023-02-19T02:32:01;97310.91;;;-5.47;70.28
49178;BME280;35016;55.674;37.468;2023-02-19T02:34:33;97312.75;;;-5.47;70.23
49178;BME280;35016;55.674;37.468;2023-02-19T02:37:02;97315.59;;;-5.49;69.61
49178;BME280;35016;55.674;37.468;2023-02-19T02:39:30;97315.59;;;-5.49;70.15
49178;BME280;35016;55.674;37.468;2023-02-19T02:41:59;97314.56;;;-5.48;69.93
49178;BME280;35016;55.674;37.468;2023-02-19T02:44:56;97312.94;;;-5.49;69.63
49178;BME280;35016;55.674;37.468;2023-02-19T02:47:52;97300.16;;;-5.52;69.96
49178;BME280;35016;55.674;37.468;2023-02-19T02:50:22;97300.97;;;-5.51;70.02
49178;BME280;35016;55.674;37.468;2023-02-19T02:52:53;97308.66;;;-5.50;70.19
49178;BME280;35016;55.674;37.468;2023-02-19T02:55:41;97311.31;;;-5.50;69.88
49178;BME280;35016;55.674;37.468;2023-02-19T02:58:09;97306.84;;;-5.49;69.75
49178;BME280;35016;55.674;37.468;2023-02-19T03:00:38;97304.19;;;-5.49;70.10
49178;BME280;35016;55.674;37.468;2023-02-19T03:03:25;97299.13;;;-5.51;69.69
49178;BME280;35016;55.674;37.468;2023-02-19T03:05:54;97307.03;;;-5.51;70.00
49178;BME280;35016;55.674;37.468;2023-02-19T03:08:35;97305.03;;;-5.49;69.83
49178;BME280;35016;55.674;37.468;2023-02-19T03:11:08;97293.44;;;-5.48;69.96
49178;BME280;35016;55.674;37.468;2023-02-19T03:16:47;97300.34;;;-5.47;69.95
49178;BME280;35016;55.674;37.468;2023-02-19T03:19:36;97290.38;;;-5.45;69.89
49178;BME280;35016;55.674;37.468;2023-02-19T03:22:07;97298.91;;;-5.43;69.92
49178;BME280;35016;55.674;37.468;2023-02-19T03:24:53;97284.28;;;-5.45;69.89
49178;BME280;35016;55.674;37.468;2023-02-19T03:27:41;97293.25;;;-5.46;70.27
49178;BME280;35016;55.674;37.468;2023-02-19T03:30:22;97288.75;;;-5.46;70.17
49178;BME280;35016;55.674;37.468;2023-02-19T03:32:54;97290.38;;;-5.45;70.25
49178;BME280;35016;55.674;37.468;2023-02-19T03:35:24;97279.81;;;-5.45;69.78
49178;BME280;35016;55.674;37.468;2023-02-19T03:40:20;97278.00;;;-5.44;70.27
49178;BME280;35016;55.674;37.468;2023-02-19T03:50:37;97272.50;;;-5.49;69.86
49178;BME280;35016;55.674;37.468;2023-02-19T03:53:16;97275.38;;;-5.51;70.17
49178;BME280;35016;55.674;37.468;2023-02-19T03:58:27;97270.09;;;-5.51;70.57
49178;BME280;35016;55.674;37.468;2023-02-19T04:03:25;97271.53;;;-5.48;70.61
49178;BME280;35016;55.674;37.468;2023-02-19T04:05:58;97272.91;;;-5.46;70.30
49178;BME280;35016;55.674;37.468;2023-02-19T04:08:27;97264.78;;;-5.44;70.42
49178;BME280;35016;55.674;37.468;2023-02-19T04:11:01;97267.00;;;-5.41;70.56
49178;BME280;35016;55.674;37.468;2023-02-19T04:13:33;97259.06;;;-5.41;70.25
49178;BME280;35016;55.674;37.468;2023-02-19T04:16:05;97262.53;;;-5.41;70.60
49178;BME280;35016;55.674;37.468;2023-02-19T04:18:38;97259.06;;;-5.41;69.84
49178;BME280;35016;55.674;37.468;2023-02-19T04:21:06;97262.16;;;-5.44;70.47
49178;BME280;35016;55.674;37.468;2023-02-19T04:23:37;97261.75;;;-5.48;70.05
49178;BME280;35016;55.674;37.468;2023-02-19T04:26:05;97260.16;;;-5.49;70.37
49178;BME280;35016;55.674;37.468;2023-02-19T04:28:36;97257.69;;;-5.50;70.22
49178;BME280;35016;55.674;37.468;2023-02-19T04:31:07;97255.06;;;-5.50;70.51
49178;BME280;35016;55.674;37.468;2023-02-19T04:33:35;97256.88;;;-5.51;70.38
49178;BME280;35016;55.674;37.468;2023-02-19T04:36:04;97257.91;;;-5.52;70.45
49178;BME280;35016;55.674;37.468;2023-02-19T04:38:31;97259.75;;;-5.52;70.62
49178;BME280;35016;55.674;37.468;2023-02-19T04:41:01;97260.16;;;-5.55;70.52
49178;BME280;35016;55.674;37.468;2023-02-19T04:43:28;97262.00;;;-5.56;70.31
49178;BME280;35016;55.674;37.468;2023-02-19T04:45:58;97259.16;;;-5.54;70.67
49178;BME280;35016;55.674;37.468;2023-02-19T04:48:25;97256.50;;;-5.54;70.40
49178;BME280;35016;55.674;37.468;2023-02-19T04:50:52;97254.66;;;-5.54;70.51
49178;BME280;35016;55.674;37.468;2023-02-19T04:53:19;97244.91;;;-5.53;70.78
49178;BME280;35016;55.674;37.468;2023-02-19T04:55:46;97247.34;;;-5.52;70.47
49178;BME280;35016;55.674;37.468;2023-02-19T04:58:14;97248.16;;;-5.51;70.91
49178;BME280;35016;55.674;37.468;2023-02-19T05:00:41;97246.09;;;-5.49;70.61
49178;BME280;35016;55.674;37.468;2023-02-19T05:03:07;97241.84;;;-5.50;70.43
49178;BME280;35016;55.674;37.468;2023-02-19T05:05:35;97240.66;;;-5.48;70.66
49178;BME280;35016;55.674;37.468;2023-02-19T05:08:02;97240.44;;;-5.46;70.74
49178;BME280;35016;55.674;37.468;2023-02-19T05:10:29;97241.25;;;-5.46;70.39
49178;BME280;35016;55.674;37.468;2023-02-19T05:12:56;97234.34;;;-5.47;70.71
49178;BME280;35016;55.674;37.468;2023-02-19T05:15:23;97228.03;;;-5.46;70.74
49178;BME280;35016;55.674;37.468;2023-02-19T05:17:50;97230.91;;;-5.47;70.40
49178;BME280;35016;55.674;37.468;2023-02-19T05:20:17;97220.31;;;-5.47;70.71
49178;BME280;35016;55.674;37.468;2023-02-19T05:22:45;97222.75;;;-5.46;70.63
49178;BME280;35016;55.674;37.468;2023-02-19T05:25:12;97234.94;;;-5.45;70.61
49178;BME280;35016;55.674;37.468;2023-02-19T05:27:39;97222.53;;;-5.44;70.44
49178;BME280;35016;55.674;37.468;2023-02-19T05:30:06;97217.03;;;-5.43;70.45
49178;BME280;35016;55.674;37.468;2023-02-19T05:32:33;97214.41;;;-5.43;70.66
49178;BME280;35016;55.674;37.468;2023-02-19T05:35:00;97215.00;;;-5.41;70.70
49178;BME280;35016;55.674;37.468;2023-02-19T05:37:27;97214.56;;;-5.38;70.72
49178;BME280;35016;55.674;37.468;2023-02-19T05:39:54;97224.69;;;-5.35;70.77
49178;BME280;35016;55.674;37.468;2023-02-19T05:42:21;97226.75;;;-5.37;70.49
49178;BME280;35016;55.674;37.468;2023-02-19T05:44:53;97214.56;;;-5.38;70.31
49178;BME280;35016;55.674;37.468;2023-02-19T05:47:21;97223.88;;;-5.35;70.74
49178;BME280;35016;55.674;37.468;2023-02-19T05:49:50;97218.38;;;-5.34;70.92
49178;BME280;35016;55.674;37.468;2023-02-19T05:52:22;97215.09;;;-5.29;70.59
49178;BME280;35016;55.674;37.468;2023-02-19T05:54:50;97219.13;;;-5.26;71.08
49178;BME280;35016;55.674;37.468;2023-02-19T05:57:17;97220.94;;;-5.20;71.11
49178;BME280;35016;55.674;37.468;2023-02-19T05:59:46;97215.00;;;-5.16;70.42
49178;BME280;35016;55.674;37.468;2023-02-19T06:02:39;97211.94;;;-5.13;70.74
49178;BME280;35016;55.674;37.468;2023-02-19T06:05:08;97217.22;;;-5.13;71.04
49178;BME280;35016;55.674;37.468;2023-02-19T06:07:35;97220.03;;;-5.08;70.47
49178;BME280;35016;55.674;37.468;2023-02-19T06:10:05;97213.88;;;-5.02;70.96
49178;BME280;35016;55.674;37.468;2023-02-19T06:12:32;97205.72;;;-5.00;70.75
49178;BME280;35016;55.674;37.468;2023-02-19T06:14:59;97212.19;;;-4.96;70.53
49178;BME280;35016;55.674;37.468;2023-02-19T06:17:26;97208.69;;;-4.90;70.40
49178;BME280;35016;55.674;37.468;2023-02-19T06:19:53;97211.28;;;-4.83;70.81
49178;BME280;35016;55.674;37.468;2023-02-19T06:22:23;97211.19;;;-4.77;70.19
49178;BME280;35016;55.674;37.468;2023-02-19T06:24:50;97212.22;;;-4.78;70.19
49178;BME280;35016;55.674;37.468;2023-02-19T06:27:18;97197.97;;;-4.77;70.48
49178;BME280;35016;55.674;37.468;2023-02-19T06:29:45;97210.75;;;-4.74;71.08
49178;BME280;35016;55.674;37.468;2023-02-19T06:32:17;97207.09;;;-4.73;70.45
49178;BME280;35016;55.674;37.468;2023-02-19T06:34:47;97214.78;;;-4.71;70.62
49178;BME280;35016;55.674;37.468;2023-02-19T06:37:14;97205.84;;;-4.70;70.48
49178;BME280;35016;55.674;37.468;2023-02-19T06:39:57;97195.84;;;-4.68;70.52
49178;BME280;35016;55.674;37.468;2023-02-19T06:42:30;97195.41;;;-4.65;70.95
49178;BME280;35016;55.674;37.468;2023-02-19T06:44:57;97189.28;;;-4.59;70.74
49178;BME280;35016;55.674;37.468;2023-02-19T06:47:31;97186.09;;;-4.49;70.90
49178;BME280;35016;55.674;37.468;2023-02-19T06:49:59;97195.78;;;-4.43;70.56
49178;BME280;35016;55.674;37.468;2023-02-19T06:52:26;97184.53;;;-4.39;70.77
49178;BME280;35016;55.674;37.468;2023-02-19T06:54:58;97187.78;;;-4.37;70.21
49178;BME280;35016;55.674;37.468;2023-02-19T06:57:26;97187.56;;;-4.35;70.38
49178;BME280;35016;55.674;37.468;2023-02-19T06:59:53;97188.75;;;-4.31;70.76
49178;BME280;35016;55.674;37.468;2023-02-19T07:02:20;97175.53;;;-4.31;70.19
49178;BME280;35016;55.674;37.468;2023-02-19T07:04:51;97173.09;;;-4.32;70.42
49178;BME280;35016;55.674;37.468;2023-02-19T07:07:22;97178.81;;;-4.36;70.05
49178;BME280;35016;55.674;37.468;2023-02-19T07:09:53;97178.44;;;-4.39;70.20
49178;BME280;35016;55.674;37.468;2023-02-19T07:12:20;97171.75;;;-4.42;70.97
49178;BME280;35016;55.674;37.468;2023-02-19T07:14:47;97162.22;;;-4.43;70.90
49178;BME280;35016;55.674;37.468;2023-02-19T07:17:14;97174.50;;;-4.48;70.27
49178;BME280;35016;55.674;37.468;2023-02-19T07:19:40;97167.81;;;-4.51;70.67
49178;BME280;35016;55.674;37.468;2023-02-19T07:22:07;97166.19;;;-4.52;70.97
49178;BME280;35016;55.674;37.468;2023-02-19T07:24:34;97163.09;;;-4.49;70.99
49178;BME280;35016;55.674;37.468;2023-02-19T07:27:01;97154.94;;;-4.47;70.60
49178;BME280;35016;55.674;37.468;2023-02-19T07:29:28;97158.63;;;-4.48;70.86
49178;BME280;35016;55.674;37.468;2023-02-19T07:31:55;97164.28;;;-4.45;71.03
49178;BME280;35016;55.674;37.468;2023-02-19T07:34:22;97153.16;;;-4.35;70.69
49178;BME280;35016;55.674;37.468;2023-02-19T07:36:49;97142.31;;;-4.27;70.89
49178;BME280;35016;55.674;37.468;2023-02-19T07:39:15;97152.22;;;-4.22;70.69
49178;BME280;35016;55.674;37.468;2023-02-19T07:41:42;97153.16;;;-4.17;70.66
49178;BME280;35016;55.674;37.468;2023-02-19T07:44:20;97153.41;;;-4.07;70.82
49178;BME280;35016;55.674;37.468;2023-02-19T07:46:48;97152.31;;;-3.99;71.30
49178;BME280;35016;55.674;37.468;2023-02-19T07:49:15;97155.09;;;-3.94;71.00
49178;BME280;35016;55.674;37.468;2023-02-19T07:51:42;97142.44;;;-3.92;70.91
49178;BME280;35016;55.674;37.468;2023-02-19T07:54:16;97154.28;;;-3.94;70.59
49178;BME280;35016;55.674;37.468;2023-02-19T07:56:43;97141.84;;;-3.94;71.39
49178;BME280;35016;55.674;37.468;2023-02-19T07:59:10;97137.13;;;-3.92;70.48
49178;BME280;35016;55.674;37.468;2023-02-19T08:01:38;97140.81;;;-3.93;70.51
49178;BME280;35016;55.674;37.468;2023-02-19T08:04:24;97139.91;;;-3.87;70.71
49178;BME280;35016;55.674;37.468;2023-02-19T08:06:51;97147.19;;;-3.82;70.86
49178;BME280;35016;55.674;37.468;2023-02-19T08:09:18;97139.47;;;-3.84;70.59
49178;BME280;35016;55.674;37.468;2023-02-19T08:11:45;97129.44;;;-3.82;70.64
49178;BME280;35016;55.674;37.468;2023-02-19T08:14:31;97132.84;;;-3.75;71.17
49178;BME280;35016;55.674;37.468;2023-02-19T08:17:00;97124.91;;;-3.63;70.77
49178;BME280;35016;55.674;37.468;2023-02-19T08:19:34;97129.31;;;-3.45;70.66
49178;BME280;35016;55.674;37.468;2023-02-19T08:22:05;97121.94;;;-3.31;70.57
49178;BME280;35016;55.674;37.468;2023-02-19T08:25:01;97132.66;;;-3.26;70.54
49178;BME280;35016;55.674;37.468;2023-02-19T08:27:47;97131.97;;;-3.22;70.59
49178;BME280;35016;55.674;37.468;2023-02-19T08:30:17;97123.22;;;-3.22;70.70
49178;BME280;35016;55.674;37.468;2023-02-19T08:32:45;97127.13;;;-3.25;70.49
49178;BME280;35016;55.674;37.468;2023-02-19T08:35:16;97119.97;;;-3.24;70.31
49178;BME280;35016;55.674;37.468;2023-02-19T08:37:57;97121.81;;;-3.25;70.76
49178;BME280;35016;55.674;37.468;2023-02-19T08:40:56;97125.28;;;-3.24;71.04
49178;BME280;35016;55.674;37.468;2023-02-19T08:43:24;97122.16;;;-3.21;70.64
49178;BME280;35016;55.674;37.468;2023-02-19T08:45:54;97121.50;;;-3.17;70.65
49178;BME280;35016;55.674;37.468;2023-02-19T08:48:22;97112.97;;;-3.07;70.87
49178;BME280;35016;55.674;37.468;2023-02-19T08:50:58;97111.81;;;-2.99;71.04
49178;BME280;35016;55.674;37.468;2023-02-19T08:53:32;97110.28;;;-2.95;71.04
49178;BME280;35016;55.674;37.468;2023-02-19T08:56:26;97101.44;;;-3.01;70.83
49178;BME280;35016;55.674;37.468;2023-02-19T08:59:16;97101.09;;;-3.04;70.74
49178;BME280;35016;55.674;37.468;2023-02-19T09:02:15;97096.72;;;-3.10;71.14
49178;BME280;35016;55.674;37.468;2023-02-19T09:04:50;97099.28;;;-3.16;70.72
49178;BME280;35016;55.674;37.468;2023-02-19T09:07:21;97099.13;;;-3.21;70.71
49178;BME280;35016;55.674;37.468;2023-02-19T09:09:54;97089.56;;;-3.22;70.86
49178;BME280;35016;55.674;37.468;2023-02-19T09:12:31;97093.16;;;-3.16;71.31
49178;BME280;35016;55.674;37.468;2023-02-19T09:15:05;97097.06;;;-3.07;71.12
49178;BME280;35016;55.674;37.468;2023-02-19T09:17:57;97082.31;;;-3.03;70.93
49178;BME280;35016;55.674;37.468;2023-02-19T09:20:28;97086.34;;;-3.00;70.73
49178;BME280;35016;55.674;37.468;2023-02-19T09:23:00;97088.66;;;-3.04;70.55
49178;BME280;35016;55.674;37.468;2023-02-19T09:25:32;97079.66;;;-3.03;71.21
49178;BME280;35016;55.674;37.468;2023-02-19T09:28:08;97086.66;;;-2.97;71.16
49178;BME280;35016;55.674;37.468;2023-02-19T09:30:46;97081.94;;;-2.95;70.79
49178;BME280;35016;55.674;37.468;2023-02-19T09:34:06;97079.84;;;-2.93;71.23
49178;BME280;35016;55.674;37.468;2023-02-19T09:36:59;97080.09;;;-2.83;71.02
49178;BME280;35016;55.674;37.468;2023-02-19T09:43:15;97068.66;;;-2.71;71.30
49178;BME280;35016;55.674;37.468;2023-02-19T09:46:08;97064.72;;;-2.69;71.18
49178;BME280;35016;55.674;37.468;2023-02-19T09:48:52;97061.25;;;-2.69;70.69
49178;BME280;35016;55.674;37.468;2023-02-19T09:54:36;97050.66;;;-2.69;70.87
49178;BME280;35016;55.674;37.468;2023-02-19T09:57:04;97061.16;;;-2.74;70.87
49178;BME280;35016;55.674;37.468;2023-02-19T09:59:44;97050.78;;;-2.76;70.54
49178;BME280;35016;55.674;37.468;2023-02-19T10:04:43;97056.19;;;-2.71;70.93
49178;BME280;35016;55.674;37.468;2023-02-19T10:07:12;97055.94;;;-2.69;71.09
49178;BME280;35016;55.674;37.468;2023-02-19T10:12:36;97061.47;;;-2.59;71.36
49178;BME280;35016;55.674;37.468;2023-02-19T10:15:18;97056.34;;;-2.49;71.10
49178;BME280;35016;55.674;37.468;2023-02-19T10:17:57;97053.31;;;-2.41;70.59
49178;BME280;35016;55.674;37.468;2023-02-19T10:20:39;97055.16;;;-2.41;71.18
49178;BME280;35016;55.674;37.468;2023-02-19T10:23:47;97062.09;;;-2.40;71.01
49178;BME280;35016;55.674;37.468;2023-02-19T10:26:24;97054.13;;;-2.40;70.70
49178;BME280;35016;55.674;37.468;2023-02-19T10:28:52;97059.75;;;-2.37;70.82
49178;BME280;35016;55.674;37.468;2023-02-19T10:31:29;97061.13;;;-2.34;70.82
49178;BME280;35016;55.674;37.468;2023-02-19T10:34:15;97050.28;;;-2.33;71.20
49178;BME280;35016;55.674;37.468;2023-02-19T10:36:48;97059.16;;;-2.27;70.85
49178;BME280;35016;55.674;37.468;2023-02-19T10:41:50;97049.94;;;-2.08;71.07
49178;BME280;35016;55.674;37.468;2023-02-19T10:44:34;97055.53;;;-1.93;71.01
49178;BME280;35016;55.674;37.468;2023-02-19T10:47:20;97048.13;;;-1.74;70.85
49178;BME280;35016;55.674;37.468;2023-02-19T10:49:53;97046.84;;;-1.54;70.73
49178;BME280;35016;55.674;37.468;2023-02-19T10:57:45;97038.66;;;-0.93;70.60
49178;BME280;35016;55.674;37.468;2023-02-19T11:00:26;97037.81;;;-0.76;70.48
49178;BME280;35016;55.674;37.468;2023-02-19T11:03:15;97032.63;;;-0.66;70.28
49178;BME280;35016;55.674;37.468;2023-02-19T11:05:56;97035.84;;;-0.64;70.29
49178;BME280;35016;55.674;37.468;2023-02-19T11:08:33;97022.78;;;-0.66;69.85
49178;BME280;35016;55.674;37.468;2023-02-19T11:11:05;97026.63;;;-0.78;69.81
49178;BME280;35016;55.674;37.468;2023-02-19T11:13:32;97028.34;;;-0.89;70.05
49178;BME280;35016;55.674;37.468;2023-02-19T11:16:04;97037.38;;;-0.90;70.31
49178;BME280;35016;55.674;37.468;2023-02-19T11:18:32;97029.88;;;-0.93;70.05
49178;BME280;35016;55.674;37.468;2023-02-19T11:21:05;97033.28;;;-0.98;70.21
49178;BME280;35016;55.674;37.468;2023-02-19T11:23:34;97025.50;;;-1.04;70.19
49178;BME280;35016;55.674;37.468;2023-02-19T11:26:04;97026.44;;;-1.15;70.36
49178;BME280;35016;55.674;37.468;2023-02-19T11:28:37;97026.34;;;-1.20;70.33
49178;BME280;35016;55.674;37.468;2023-02-19T11:33:57;97017.84;;;-1.39;70.40
49178;BME280;35016;55.674;37.468;2023-02-19T11:36:26;97028.06;;;-1.48;70.62
49178;BME280;35016;55.674;37.468;2023-02-19T11:38:56;97018.41;;;-1.54;70.80
49178;BME280;35016;55.674;37.468;2023-02-19T11:49:24;97026.38;;;-1.37;71.02
49178;BME280;35016;55.674;37.468;2023-02-19T11:59:37;97017.03;;;-1.40;70.57
49178;BME280;35016;55.674;37.468;2023-02-19T12:10:11;97017.88;;;-1.73;70.78
49178;BME280;35016;55.674;37.468;2023-02-19T12:12:59;97013.03;;;-1.76;70.81
49178;BME280;35016;55.674;37.468;2023-02-19T12:28:22;97025.75;;;-1.78;71.05
49178;BME280;35016;55.674;37.468;2023-02-19T12:33:37;97020.94;;;-1.98;70.82
49178;BME280;35016;55.674;37.468;2023-02-19T12:38:43;97022.19;;;-2.17;70.80
49178;BME280;35016;55.674;37.468;2023-02-19T12:44:04;97025.56;;;-2.50;70.59
49178;BME280;35016;55.674;37.468;2023-02-19T12:46:35;97031.94;;;-2.63;70.64
49178;BME280;35016;55.674;37.468;2023-02-19T12:49:11;97019.38;;;-2.67;70.43
49178;BME280;35016;55.674;37.468;2023-02-19T12:51:47;97018.34;;;-2.66;70.72
49178;BME280;35016;55.674;37.468;2023-02-19T13:07:29;97027.31;;;-2.84;70.94
49178;BME280;35016;55.674;37.468;2023-02-19T13:10:03;97033.50;;;-2.90;70.83
49178;BME280;35016;55.674;37.468;2023-02-19T13:12:33;97034.00;;;-2.93;71.02
49178;BME280;35016;55.674;37.468;2023-02-19T13:15:03;97032.38;;;-2.94;70.78
49178;BME280;35016;55.674;37.468;2023-02-19T13:17:35;97031.81;;;-2.96;70.91
49178;BME280;35016;55.674;37.468;2023-02-19T13:20:19;97030.91;;;-3.02;71.26
49178;BME280;35016;55.674;37.468;2023-02-19T13:25:57;97030.09;;;-3.02;70.91
49178;BME280;35016;55.674;37.468;2023-02-19T13:36:24;97026.88;;;-3.04;70.78
49178;BME280;35016;55.674;37.468;2023-02-19T13:38:53;97025.84;;;-3.03;71.25
49178;BME280;35016;55.674;37.468;2023-02-19T13:41:39;97029.06;;;-3.01;71.05
49178;BME280;35016;55.674;37.468;2023-02-19T13:44:17;97029.06;;;-3.01;70.94
49178;BME280;35016;55.674;37.468;2023-02-19T13:46:48;97024.47;;;-3.06;71.45
49178;BME280;35016;55.674;37.468;2023-02-19T13:52:18;97016.66;;;-3.13;70.97
49178;BME280;35016;55.674;37.468;2023-02-19T13:54:49;97025.63;;;-3.14;70.66
49178;BME280;35016;55.674;37.468;2023-02-19T13:59:44;97018.81;;;-3.21;70.83
49178;BME280;35016;55.674;37.468;2023-02-19T14:02:13;97013.19;;;-3.25;70.71
49178;BME280;35016;55.674;37.468;2023-02-19T14:04:53;97009.63;;;-3.30;71.22
49178;BME280;35016;55.674;37.468;2023-02-19T14:07:32;97002.84;;;-3.38;70.81
49178;BME280;35016;55.674;37.468;2023-02-19T14:10:00;97007.22;;;-3.44;71.23
49178;BME280;35016;55.674;37.468;2023-02-19T14:12:37;97007.91;;;-3.48;70.95
49178;BME280;35016;55.674;37.468;2023-02-19T14:20:51;96999.41;;;-3.62;70.87
49178;BME280;35016;55.674;37.468;2023-02-19T14:23:31;96996.66;;;-3.67;71.20
49178;BME280;35016;55.674;37.468;2023-02-19T14:25:58;96992.84;;;-3.71;71.35
49178;BME280;35016;55.674;37.468;2023-02-19T14:31:25;96994.56;;;-3.88;71.50
49178;BME280;35016;55.674;37.468;2023-02-19T14:33:50;96993.28;;;-3.97;70.73
49178;BME280;35016;55.674;37.468;2023-02-19T14:39:16;96997.50;;;-4.08;71.41
49178;BME280;35016;55.674;37.468;2023-02-19T14:41:50;97004.06;;;-4.11;71.60
49178;BME280;35016;55.674;37.468;2023-02-19T14:44:22;96997.41;;;-4.13;71.15
49178;BME280;35016;55.674;37.468;2023-02-19T14:49:44;96986.81;;;-4.13;71.62
49178;BME280;35016;55.674;37.468;2023-02-19T14:52:16;96986.25;;;-4.15;70.96
49178;BME280;35016;55.674;37.468;2023-02-19T14:54:49;96988.06;;;-4.16;71.84
49178;BME280;35016;55.674;37.468;2023-02-19T14:57:24;96983.25;;;-4.19;70.92
49178;BME280;35016;55.674;37.468;2023-02-19T14:59:57;96978.41;;;-4.22;71.58
49178;BME280;35016;55.674;37.468;2023-02-19T15:02:25;96984.38;;;-4.26;71.43
49178;BME280;35016;55.674;37.468;2023-02-19T15:04:53;96978.75;;;-4.30;71.35
49178;BME280;35016;55.674;37.468;2023-02-19T15:07:22;96988.13;;;-4.34;71.09
49178;BME280;35016;55.674;37.468;2023-02-19T15:09:53;96988.03;;;-4.39;71.40
49178;BME280;35016;55.674;37.468;2023-02-19T15:12:24;96987.66;;;-4.43;71.10
49178;BME280;35016;55.674;37.468;2023-02-19T15:14:53;96976.88;;;-4.41;71.63
49178;BME280;35016;55.674;37.468;2023-02-19T15:17:29;96978.25;;;-4.39;71.51
49178;BME280;35016;55.674;37.468;2023-02-19T15:19:57;96988.38;;;-4.36;71.23
49178;BME280;35016;55.674;37.468;2023-02-19T15:22:26;96983.88;;;-4.35;71.04
49178;BME280;35016;55.674;37.468;2023-02-19T15:24:54;96987.13;;;-4.33;71.46
49178;BME280;35016;55.674;37.468;2023-02-19T15:27:23;96977.38;;;-4.32;70.90
49178;BME280;35016;55.674;37.468;2023-02-19T15:29:51;96970.59;;;-4.28;71.17
49178;BME280;35016;55.674;37.468;2023-02-19T15:32:23;96971.16;;;-4.26;71.47
49178;BME280;35016;55.674;37.468;2023-02-19T15:34:56;96971.63;;;-4.29;71.02
49178;BME280;35016;55.674;37.468;2023-02-19T15:37:24;96968.16;;;-4.30;71.05
49178;BME280;35016;55.674;37.468;2023-02-19T15:39:54;96964.34;;;-4.34;71.64
49178;BME280;35016;55.674;37.468;2023-02-19T15:47:25;96968.16;;;-4.30;71.01